Hua Hin, Thailand
Current Conditions -  °F | °C
As of 10:00 AM on Saturday 29 Nov 2014 (Local Time) from VTPH Reporting Station
Clear Clear  
Wind Chill: 32°   Ceiling: Unl
Heat Index: 37°   Visibility: 6mi
Dew Point: 23°   Wind: 5mph
Humidity: 59%   Direction: 360°N
Pressure: 29.85"   Gusts: NA
Location:  12.57°N, 99.95°E
Report Text: VTPH 290300Z 36004KT 290V040 CAVOK 32/23 Q1011 NOSIG
Loading
Personal Weather Stations






























Interactive Weather Map New forecast layout! Learn more

10-Day Weather Forecast

Advertisements
Track Severe Weather on mobile